Portada
METAR-TAF:

METAR-TAF

Aeropuertos :

Aeropuerto Internacional de Kosrae

Kosrae, Micronesia

latitud: 05-21N, longitud: 162-57E, altitud: 3 m

Observación

El informe se hizo hace 50 minutos, a las 04:50 UTC
Viento 7 kt del suroeste
Temperatura 29°C
Humedad 74%
Presión 1009 hPa
Visibilidad: 16.1 km
Cielo nuboso a una altura de 1900 ft, Cumulus congestus.
Cielo nuboso a una altura de 13000 ft
Cielo nuboso a una altura de 30000 ft

METAR: PTSA 190450Z 22007KT 10SM BKN019TCU BKN130 BKN300 29/24 A2980 RMK TCU NE-S

Hora: 16:40 (05:40 UTC)

Pronóstico

El informe se hizo hace 14 minutos, a las 05:26 UTC
Pronóstico válido del 19 a las 06 UTC al 20 a las 06 UTC
Viento 6 kt con dirección variable
Visibilidad: 10 km
Nubes dispersas a una altura de 2000 ft

TAF: PTSA 190526Z 1906/2006 VRB06KT P6SM SCT020

Observaciones y pronósticos meteorológicos de más de 4000 aeropuertos (mensajes METAR y TAF).

Los puntos amarillos y rojos representan las estaciones disponibles.

Ponga el ratón en el punto deseado para ver el nombre de la estación.

Haga clic para ver las observaciones y los pronósticos meteorológicos.

Para cambiar el mapa : haga clic en los botones verdes con una cruz de color negro para hacer un zoom, en el botón verde con un guión para alejar o en las flechas verdes para mapas adyacentes.


METAR-TAF: